sensor_id;sensor_type;location;lat;lon;timestamp;P1;durP1;ratioP1;P2;durP2;ratioP2
59907;SDS011;61804;54.926;73.496;2023-02-12T00:01:45;28.15;;;14.98;;
59907;SDS011;61804;54.926;73.496;2023-02-12T00:04:12;35.55;;;17.50;;
59907;SDS011;61804;54.926;73.496;2023-02-12T00:06:41;41.30;;;12.73;;
59907;SDS011;61804;54.926;73.496;2023-02-12T00:09:08;25.55;;;13.27;;
59907;SDS011;61804;54.926;73.496;2023-02-12T00:11:39;30.52;;;19.48;;
59907;SDS011;61804;54.926;73.496;2023-02-12T00:14:08;20.02;;;10.10;;
59907;SDS011;61804;54.926;73.496;2023-02-12T00:16:45;23.60;;;9.93;;
59907;SDS011;61804;54.926;73.496;2023-02-12T00:19:17;19.75;;;10.32;;
59907;SDS011;61804;54.926;73.496;2023-02-12T00:21:44;24.50;;;10.80;;
59907;SDS011;61804;54.926;73.496;2023-02-12T00:24:22;19.45;;;12.77;;
59907;SDS011;61804;54.926;73.496;2023-02-12T00:26:49;22.92;;;11.15;;
59907;SDS011;61804;54.926;73.496;2023-02-12T00:29:21;21.48;;;13.50;;
59907;SDS011;61804;54.926;73.496;2023-02-12T00:31:48;33.97;;;15.00;;
59907;SDS011;61804;54.926;73.496;2023-02-12T00:34:20;30.05;;;14.20;;
59907;SDS011;61804;54.926;73.496;2023-02-12T00:36:48;24.73;;;12.98;;
59907;SDS011;61804;54.926;73.496;2023-02-12T00:39:16;28.23;;;12.25;;
59907;SDS011;61804;54.926;73.496;2023-02-12T00:41:44;27.58;;;12.80;;
59907;SDS011;61804;54.926;73.496;2023-02-12T00:44:13;23.40;;;13.50;;
59907;SDS011;61804;54.926;73.496;2023-02-12T00:46:40;17.08;;;10.88;;
59907;SDS011;61804;54.926;73.496;2023-02-12T00:49:18;25.83;;;12.30;;
59907;SDS011;61804;54.926;73.496;2023-02-12T00:51:46;25.65;;;11.05;;
59907;SDS011;61804;54.926;73.496;2023-02-12T00:54:24;23.73;;;12.85;;
59907;SDS011;61804;54.926;73.496;2023-02-12T00:56:51;26.08;;;14.18;;
59907;SDS011;61804;54.926;73.496;2023-02-12T00:59:22;22.17;;;10.63;;
59907;SDS011;61804;54.926;73.496;2023-02-12T01:02:02;19.95;;;12.32;;
59907;SDS011;61804;54.926;73.496;2023-02-12T01:04:41;20.00;;;11.35;;
59907;SDS011;61804;54.926;73.496;2023-02-12T01:07:09;20.67;;;10.25;;
59907;SDS011;61804;54.926;73.496;2023-02-12T01:09:37;28.90;;;15.50;;
59907;SDS011;61804;54.926;73.496;2023-02-12T01:12:09;29.10;;;10.48;;
59907;SDS011;61804;54.926;73.496;2023-02-12T01:14:36;31.75;;;10.45;;
59907;SDS011;61804;54.926;73.496;2023-02-12T01:17:14;26.10;;;12.82;;
59907;SDS011;61804;54.926;73.496;2023-02-12T01:19:46;28.45;;;14.88;;
59907;SDS011;61804;54.926;73.496;2023-02-12T01:22:17;26.23;;;16.10;;
59907;SDS011;61804;54.926;73.496;2023-02-12T01:24:44;29.35;;;9.13;;
59907;SDS011;61804;54.926;73.496;2023-02-12T01:27:16;10.85;;;8.70;;
59907;SDS011;61804;54.926;73.496;2023-02-12T01:29:56;20.60;;;14.10;;
59907;SDS011;61804;54.926;73.496;2023-02-12T01:32:28;26.20;;;16.63;;
59907;SDS011;61804;54.926;73.496;2023-02-12T01:34:55;25.67;;;12.85;;
59907;SDS011;61804;54.926;73.496;2023-02-12T01:37:28;29.42;;;13.85;;
59907;SDS011;61804;54.926;73.496;2023-02-12T01:39:57;28.98;;;15.65;;
59907;SDS011;61804;54.926;73.496;2023-02-12T01:42:31;20.67;;;12.55;;
59907;SDS011;61804;54.926;73.496;2023-02-12T01:47:47;16.83;;;13.50;;
59907;SDS011;61804;54.926;73.496;2023-02-12T01:50:17;23.08;;;15.00;;
59907;SDS011;61804;54.926;73.496;2023-02-12T01:52:52;26.60;;;15.43;;
59907;SDS011;61804;54.926;73.496;2023-02-12T01:55:21;27.15;;;14.68;;
59907;SDS011;61804;54.926;73.496;2023-02-12T01:57:49;30.10;;;17.25;;
59907;SDS011;61804;54.926;73.496;2023-02-12T02:00:27;43.13;;;19.70;;
59907;SDS011;61804;54.926;73.496;2023-02-12T02:02:56;31.27;;;15.98;;
59907;SDS011;61804;54.926;73.496;2023-02-12T02:08:20;23.02;;;15.95;;
59907;SDS011;61804;54.926;73.496;2023-02-12T02:10:53;31.83;;;17.80;;
59907;SDS011;61804;54.926;73.496;2023-02-12T02:13:26;28.77;;;16.05;;
59907;SDS011;61804;54.926;73.496;2023-02-12T02:16:19;27.48;;;14.32;;
59907;SDS011;61804;54.926;73.496;2023-02-12T02:18:52;40.25;;;18.15;;
59907;SDS011;61804;54.926;73.496;2023-02-12T02:24:21;29.63;;;13.93;;
59907;SDS011;61804;54.926;73.496;2023-02-12T02:27:15;27.85;;;17.25;;
59907;SDS011;61804;54.926;73.496;2023-02-12T02:32:29;25.58;;;18.30;;
59907;SDS011;61804;54.926;73.496;2023-02-12T02:35:04;27.48;;;15.77;;
59907;SDS011;61804;54.926;73.496;2023-02-12T02:43:16;48.15;;;21.83;;
59907;SDS011;61804;54.926;73.496;2023-02-12T02:45:50;38.58;;;20.27;;
59907;SDS011;61804;54.926;73.496;2023-02-12T02:48:34;25.45;;;15.85;;
59907;SDS011;61804;54.926;73.496;2023-02-12T02:51:08;35.65;;;17.52;;
59907;SDS011;61804;54.926;73.496;2023-02-12T02:53:42;24.83;;;18.58;;
59907;SDS011;61804;54.926;73.496;2023-02-12T02:56:22;55.47;;;23.07;;
59907;SDS011;61804;54.926;73.496;2023-02-12T02:58:57;42.20;;;25.13;;
59907;SDS011;61804;54.926;73.496;2023-02-12T03:01:38;31.45;;;17.35;;
59907;SDS011;61804;54.926;73.496;2023-02-12T03:04:32;31.13;;;18.88;;
59907;SDS011;61804;54.926;73.496;2023-02-12T03:10:23;40.53;;;20.88;;
59907;SDS011;61804;54.926;73.496;2023-02-12T03:13:07;30.45;;;17.23;;
59907;SDS011;61804;54.926;73.496;2023-02-12T03:15:46;49.53;;;22.92;;
59907;SDS011;61804;54.926;73.496;2023-02-12T03:18:17;41.70;;;21.70;;
59907;SDS011;61804;54.926;73.496;2023-02-12T03:20:46;35.03;;;23.35;;
59907;SDS011;61804;54.926;73.496;2023-02-12T03:23:30;48.83;;;25.55;;
59907;SDS011;61804;54.926;73.496;2023-02-12T03:26:16;58.03;;;32.55;;
59907;SDS011;61804;54.926;73.496;2023-02-12T03:28:46;52.28;;;31.45;;
59907;SDS011;61804;54.926;73.496;2023-02-12T03:34:18;48.40;;;29.25;;
59907;SDS011;61804;54.926;73.496;2023-02-12T03:39:22;46.97;;;28.80;;
59907;SDS011;61804;54.926;73.496;2023-02-12T03:42:00;48.55;;;27.85;;
59907;SDS011;61804;54.926;73.496;2023-02-12T03:47:24;54.88;;;29.05;;
59907;SDS011;61804;54.926;73.496;2023-02-12T03:50:09;53.58;;;36.47;;
59907;SDS011;61804;54.926;73.496;2023-02-12T03:52:37;63.08;;;34.75;;
59907;SDS011;61804;54.926;73.496;2023-02-12T03:55:05;67.75;;;41.70;;
59907;SDS011;61804;54.926;73.496;2023-02-12T03:57:40;85.53;;;38.75;;
59907;SDS011;61804;54.926;73.496;2023-02-12T04:00:10;55.58;;;34.17;;
59907;SDS011;61804;54.926;73.496;2023-02-12T04:02:41;48.30;;;31.27;;
59907;SDS011;61804;54.926;73.496;2023-02-12T04:05:19;44.08;;;32.05;;
59907;SDS011;61804;54.926;73.496;2023-02-12T04:07:47;60.10;;;38.95;;
59907;SDS011;61804;54.926;73.496;2023-02-12T04:10:15;68.68;;;43.45;;
59907;SDS011;61804;54.926;73.496;2023-02-12T04:12:51;84.88;;;50.00;;
59907;SDS011;61804;54.926;73.496;2023-02-12T04:15:39;55.80;;;38.20;;
59907;SDS011;61804;54.926;73.496;2023-02-12T04:18:15;60.53;;;42.38;;
59907;SDS011;61804;54.926;73.496;2023-02-12T04:21:05;72.35;;;51.03;;
59907;SDS011;61804;54.926;73.496;2023-02-12T04:26:41;86.50;;;61.67;;
59907;SDS011;61804;54.926;73.496;2023-02-12T04:29:17;62.45;;;39.80;;
59907;SDS011;61804;54.926;73.496;2023-02-12T04:31:54;91.40;;;66.32;;
59907;SDS011;61804;54.926;73.496;2023-02-12T04:34:31;66.78;;;47.90;;
59907;SDS011;61804;54.926;73.496;2023-02-12T04:37:06;70.05;;;47.28;;
59907;SDS011;61804;54.926;73.496;2023-02-12T04:39:41;80.47;;;50.60;;
59907;SDS011;61804;54.926;73.496;2023-02-12T04:42:09;83.22;;;54.05;;
59907;SDS011;61804;54.926;73.496;2023-02-12T04:44:38;60.00;;;42.78;;
59907;SDS011;61804;54.926;73.496;2023-02-12T04:47:11;68.03;;;42.60;;
59907;SDS011;61804;54.926;73.496;2023-02-12T04:49:49;95.32;;;52.17;;
59907;SDS011;61804;54.926;73.496;2023-02-12T04:52:27;86.15;;;55.25;;
59907;SDS011;61804;54.926;73.496;2023-02-12T04:54:55;73.22;;;47.33;;
59907;SDS011;61804;54.926;73.496;2023-02-12T04:57:28;63.03;;;40.75;;
59907;SDS011;61804;54.926;73.496;2023-02-12T05:00:06;59.03;;;37.42;;
59907;SDS011;61804;54.926;73.496;2023-02-12T05:02:35;61.97;;;38.28;;
59907;SDS011;61804;54.926;73.496;2023-02-12T05:05:10;53.33;;;38.10;;
59907;SDS011;61804;54.926;73.496;2023-02-12T05:07:47;45.97;;;34.55;;
59907;SDS011;61804;54.926;73.496;2023-02-12T05:10:14;41.50;;;27.33;;
59907;SDS011;61804;54.926;73.496;2023-02-12T05:12:41;60.90;;;38.60;;
59907;SDS011;61804;54.926;73.496;2023-02-12T05:15:19;44.22;;;34.70;;
59907;SDS011;61804;54.926;73.496;2023-02-12T05:17:56;47.30;;;38.40;;
59907;SDS011;61804;54.926;73.496;2023-02-12T05:20:27;58.92;;;38.53;;
59907;SDS011;61804;54.926;73.496;2023-02-12T05:22:54;51.95;;;35.38;;
59907;SDS011;61804;54.926;73.496;2023-02-12T05:25:21;58.38;;;37.72;;
59907;SDS011;61804;54.926;73.496;2023-02-12T05:27:49;54.45;;;33.20;;
59907;SDS011;61804;54.926;73.496;2023-02-12T05:30:16;44.75;;;27.80;;
59907;SDS011;61804;54.926;73.496;2023-02-12T05:32:43;42.42;;;30.20;;
59907;SDS011;61804;54.926;73.496;2023-02-12T05:35:12;48.45;;;34.70;;
59907;SDS011;61804;54.926;73.496;2023-02-12T05:37:40;46.88;;;29.15;;
59907;SDS011;61804;54.926;73.496;2023-02-12T05:40:07;50.33;;;33.00;;
59907;SDS011;61804;54.926;73.496;2023-02-12T05:42:37;46.88;;;33.28;;
59907;SDS011;61804;54.926;73.496;2023-02-12T05:45:05;47.67;;;28.92;;
59907;SDS011;61804;54.926;73.496;2023-02-12T05:47:32;47.58;;;31.02;;
59907;SDS011;61804;54.926;73.496;2023-02-12T05:50:00;81.32;;;30.70;;
59907;SDS011;61804;54.926;73.496;2023-02-12T05:52:37;36.45;;;26.13;;
59907;SDS011;61804;54.926;73.496;2023-02-12T05:55:14;36.70;;;20.60;;
59907;SDS011;61804;54.926;73.496;2023-02-12T05:57:43;30.23;;;18.27;;
59907;SDS011;61804;54.926;73.496;2023-02-12T06:00:11;35.08;;;18.73;;
59907;SDS011;61804;54.926;73.496;2023-02-12T06:02:41;35.88;;;19.40;;
59907;SDS011;61804;54.926;73.496;2023-02-12T06:05:09;32.60;;;25.92;;
59907;SDS011;61804;54.926;73.496;2023-02-12T06:07:41;32.20;;;21.55;;
59907;SDS011;61804;54.926;73.496;2023-02-12T06:10:09;46.65;;;26.70;;
59907;SDS011;61804;54.926;73.496;2023-02-12T06:12:36;49.30;;;31.23;;
59907;SDS011;61804;54.926;73.496;2023-02-12T06:15:03;43.33;;;30.10;;
59907;SDS011;61804;54.926;73.496;2023-02-12T06:17:39;79.15;;;47.42;;
59907;SDS011;61804;54.926;73.496;2023-02-12T06:20:07;71.93;;;44.50;;
59907;SDS011;61804;54.926;73.496;2023-02-12T06:22:34;40.30;;;21.30;;
59907;SDS011;61804;54.926;73.496;2023-02-12T06:25:04;44.08;;;29.23;;
59907;SDS011;61804;54.926;73.496;2023-02-12T06:27:31;46.60;;;27.85;;
59907;SDS011;61804;54.926;73.496;2023-02-12T06:30:04;72.47;;;40.20;;
59907;SDS011;61804;54.926;73.496;2023-02-12T06:32:31;69.82;;;43.47;;
59907;SDS011;61804;54.926;73.496;2023-02-12T06:34:59;52.75;;;38.78;;
59907;SDS011;61804;54.926;73.496;2023-02-12T06:37:27;39.25;;;29.73;;
59907;SDS011;61804;54.926;73.496;2023-02-12T06:39:59;66.88;;;38.08;;
59907;SDS011;61804;54.926;73.496;2023-02-12T06:42:32;60.33;;;39.15;;
59907;SDS011;61804;54.926;73.496;2023-02-12T06:45:00;58.65;;;40.53;;
59907;SDS011;61804;54.926;73.496;2023-02-12T06:47:33;53.58;;;34.28;;
59907;SDS011;61804;54.926;73.496;2023-02-12T06:50:01;46.13;;;29.75;;
59907;SDS011;61804;54.926;73.496;2023-02-12T06:52:28;67.07;;;36.90;;
59907;SDS011;61804;54.926;73.496;2023-02-12T06:54:56;44.83;;;31.15;;
59907;SDS011;61804;54.926;73.496;2023-02-12T06:57:23;67.72;;;45.15;;
59907;SDS011;61804;54.926;73.496;2023-02-12T06:59:51;58.38;;;43.75;;
59907;SDS011;61804;54.926;73.496;2023-02-12T07:02:19;58.20;;;37.90;;
59907;SDS011;61804;54.926;73.496;2023-02-12T07:04:46;47.85;;;33.22;;
59907;SDS011;61804;54.926;73.496;2023-02-12T07:07:14;39.95;;;30.83;;
59907;SDS011;61804;54.926;73.496;2023-02-12T07:09:41;36.95;;;25.05;;
59907;SDS011;61804;54.926;73.496;2023-02-12T07:12:09;32.63;;;22.50;;
59907;SDS011;61804;54.926;73.496;2023-02-12T07:14:42;27.42;;;18.70;;
59907;SDS011;61804;54.926;73.496;2023-02-12T07:17:09;25.70;;;20.20;;
59907;SDS011;61804;54.926;73.496;2023-02-12T07:19:41;33.35;;;24.58;;
59907;SDS011;61804;54.926;73.496;2023-02-12T07:22:09;36.40;;;24.23;;
59907;SDS011;61804;54.926;73.496;2023-02-12T07:24:36;31.77;;;22.63;;
59907;SDS011;61804;54.926;73.496;2023-02-12T07:27:05;47.92;;;25.50;;
59907;SDS011;61804;54.926;73.496;2023-02-12T07:29:32;32.65;;;26.45;;
59907;SDS011;61804;54.926;73.496;2023-02-12T07:32:00;41.92;;;28.88;;
59907;SDS011;61804;54.926;73.496;2023-02-12T07:34:28;38.72;;;27.95;;
59907;SDS011;61804;54.926;73.496;2023-02-12T07:36:57;36.55;;;26.70;;
59907;SDS011;61804;54.926;73.496;2023-02-12T07:39:24;33.95;;;23.27;;
59907;SDS011;61804;54.926;73.496;2023-02-12T07:41:52;48.50;;;28.08;;
59907;SDS011;61804;54.926;73.496;2023-02-12T07:44:20;30.77;;;24.05;;
59907;SDS011;61804;54.926;73.496;2023-02-12T07:46:48;43.75;;;29.65;;
59907;SDS011;61804;54.926;73.496;2023-02-12T07:49:17;45.38;;;27.83;;
59907;SDS011;61804;54.926;73.496;2023-02-12T07:51:45;44.20;;;28.10;;
59907;SDS011;61804;54.926;73.496;2023-02-12T07:54:12;37.15;;;24.30;;
59907;SDS011;61804;54.926;73.496;2023-02-12T07:56:50;43.47;;;30.05;;
59907;SDS011;61804;54.926;73.496;2023-02-12T07:59:28;29.70;;;22.65;;
59907;SDS011;61804;54.926;73.496;2023-02-12T08:01:56;34.78;;;19.13;;
59907;SDS011;61804;54.926;73.496;2023-02-12T08:04:24;31.77;;;22.42;;
59907;SDS011;61804;54.926;73.496;2023-02-12T08:06:56;33.83;;;20.55;;
59907;SDS011;61804;54.926;73.496;2023-02-12T08:09:35;26.55;;;17.55;;
59907;SDS011;61804;54.926;73.496;2023-02-12T08:12:02;33.50;;;22.58;;
59907;SDS011;61804;54.926;73.496;2023-02-12T08:14:35;44.00;;;25.33;;
59907;SDS011;61804;54.926;73.496;2023-02-12T08:17:03;33.53;;;23.67;;
59907;SDS011;61804;54.926;73.496;2023-02-12T08:19:30;29.23;;;18.88;;
59907;SDS011;61804;54.926;73.496;2023-02-12T08:21:58;28.90;;;19.08;;
59907;SDS011;61804;54.926;73.496;2023-02-12T08:24:30;24.80;;;17.17;;
59907;SDS011;61804;54.926;73.496;2023-02-12T08:26:58;23.30;;;16.50;;
59907;SDS011;61804;54.926;73.496;2023-02-12T08:29:27;27.00;;;15.80;;
59907;SDS011;61804;54.926;73.496;2023-02-12T08:31:56;34.75;;;20.90;;
59907;SDS011;61804;54.926;73.496;2023-02-12T08:34:25;28.65;;;18.15;;
59907;SDS011;61804;54.926;73.496;2023-02-12T08:36:53;40.05;;;25.42;;
59907;SDS011;61804;54.926;73.496;2023-02-12T08:39:25;52.45;;;26.30;;
59907;SDS011;61804;54.926;73.496;2023-02-12T08:41:54;45.65;;;25.92;;
59907;SDS011;61804;54.926;73.496;2023-02-12T08:44:21;33.22;;;23.27;;
59907;SDS011;61804;54.926;73.496;2023-02-12T08:46:52;28.35;;;21.52;;
59907;SDS011;61804;54.926;73.496;2023-02-12T08:49:23;35.80;;;23.17;;
59907;SDS011;61804;54.926;73.496;2023-02-12T08:51:52;34.83;;;20.23;;
59907;SDS011;61804;54.926;73.496;2023-02-12T08:54:25;28.98;;;18.48;;
59907;SDS011;61804;54.926;73.496;2023-02-12T08:57:05;29.50;;;20.30;;
59907;SDS011;61804;54.926;73.496;2023-02-12T08:59:32;24.90;;;18.25;;
59907;SDS011;61804;54.926;73.496;2023-02-12T09:01:59;34.63;;;19.15;;
59907;SDS011;61804;54.926;73.496;2023-02-12T09:04:29;44.20;;;21.30;;
59907;SDS011;61804;54.926;73.496;2023-02-12T09:06:59;33.47;;;19.05;;
59907;SDS011;61804;54.926;73.496;2023-02-12T09:09:27;36.28;;;22.60;;
59907;SDS011;61804;54.926;73.496;2023-02-12T09:11:54;35.47;;;22.17;;
59907;SDS011;61804;54.926;73.496;2023-02-12T09:14:22;82.15;;;54.17;;
59907;SDS011;61804;54.926;73.496;2023-02-12T09:16:49;39.67;;;25.52;;
59907;SDS011;61804;54.926;73.496;2023-02-12T09:19:19;38.00;;;24.95;;
59907;SDS011;61804;54.926;73.496;2023-02-12T09:21:49;34.15;;;24.42;;
59907;SDS011;61804;54.926;73.496;2023-02-12T09:24:23;28.38;;;22.95;;
59907;SDS011;61804;54.926;73.496;2023-02-12T09:27:01;47.10;;;25.70;;
59907;SDS011;61804;54.926;73.496;2023-02-12T09:29:29;35.50;;;25.05;;
59907;SDS011;61804;54.926;73.496;2023-02-12T09:31:56;36.50;;;24.67;;
59907;SDS011;61804;54.926;73.496;2023-02-12T09:34:24;30.60;;;21.75;;
59907;SDS011;61804;54.926;73.496;2023-02-12T09:36:56;36.70;;;26.48;;
59907;SDS011;61804;54.926;73.496;2023-02-12T09:39:24;39.97;;;25.20;;
59907;SDS011;61804;54.926;73.496;2023-02-12T09:41:59;31.70;;;21.52;;
59907;SDS011;61804;54.926;73.496;2023-02-12T09:49:50;39.05;;;25.25;;
59907;SDS011;61804;54.926;73.496;2023-02-12T09:52:23;50.15;;;31.00;;
59907;SDS011;61804;54.926;73.496;2023-02-12T09:54:53;34.63;;;25.73;;
59907;SDS011;61804;54.926;73.496;2023-02-12T09:57:33;41.63;;;23.65;;
59907;SDS011;61804;54.926;73.496;2023-02-12T10:00:26;36.17;;;23.35;;
59907;SDS011;61804;54.926;73.496;2023-02-12T10:03:04;35.85;;;25.35;;
59907;SDS011;61804;54.926;73.496;2023-02-12T10:05:39;41.13;;;22.00;;
59907;SDS011;61804;54.926;73.496;2023-02-12T10:10:45;34.97;;;23.48;;
59907;SDS011;61804;54.926;73.496;2023-02-12T10:19:18;70.70;;;29.02;;
59907;SDS011;61804;54.926;73.496;2023-02-12T10:26:58;42.50;;;26.45;;
59907;SDS011;61804;54.926;73.496;2023-02-12T10:29:31;47.13;;;32.25;;
59907;SDS011;61804;54.926;73.496;2023-02-12T10:32:23;50.53;;;32.15;;
59907;SDS011;61804;54.926;73.496;2023-02-12T10:34:47;38.65;;;26.23;;
59907;SDS011;61804;54.926;73.496;2023-02-12T10:39:49;58.67;;;40.20;;
59907;SDS011;61804;54.926;73.496;2023-02-12T10:45:08;50.58;;;33.13;;
59907;SDS011;61804;54.926;73.496;2023-02-12T10:47:39;57.13;;;29.25;;
59907;SDS011;61804;54.926;73.496;2023-02-12T10:50:23;44.95;;;30.10;;
59907;SDS011;61804;54.926;73.496;2023-02-12T10:53:03;31.35;;;25.48;;
59907;SDS011;61804;54.926;73.496;2023-02-12T10:55:36;26.90;;;19.10;;
59907;SDS011;61804;54.926;73.496;2023-02-12T10:58:20;36.63;;;25.90;;
59907;SDS011;61804;54.926;73.496;2023-02-12T11:00:55;26.13;;;20.85;;
59907;SDS011;61804;54.926;73.496;2023-02-12T11:03:31;43.20;;;26.00;;
59907;SDS011;61804;54.926;73.496;2023-02-12T11:06:13;31.35;;;24.58;;
59907;SDS011;61804;54.926;73.496;2023-02-12T11:08:53;34.90;;;22.80;;
59907;SDS011;61804;54.926;73.496;2023-02-12T11:11:28;32.50;;;21.40;;
59907;SDS011;61804;54.926;73.496;2023-02-12T11:14:37;44.38;;;29.27;;
59907;SDS011;61804;54.926;73.496;2023-02-12T11:17:02;24.65;;;17.20;;
59907;SDS011;61804;54.926;73.496;2023-02-12T11:19:35;29.50;;;19.77;;
59907;SDS011;61804;54.926;73.496;2023-02-12T11:22:10;26.27;;;19.42;;
59907;SDS011;61804;54.926;73.496;2023-02-12T11:24:45;35.78;;;17.08;;
59907;SDS011;61804;54.926;73.496;2023-02-12T11:29:45;26.25;;;16.15;;
59907;SDS011;61804;54.926;73.496;2023-02-12T11:32:21;34.25;;;16.95;;
59907;SDS011;61804;54.926;73.496;2023-02-12T11:35:23;39.28;;;22.30;;
59907;SDS011;61804;54.926;73.496;2023-02-12T11:37:49;34.47;;;18.63;;
59907;SDS011;61804;54.926;73.496;2023-02-12T11:40:24;25.35;;;15.90;;
59907;SDS011;61804;54.926;73.496;2023-02-12T11:43:05;24.75;;;14.82;;
59907;SDS011;61804;54.926;73.496;2023-02-12T11:45:40;36.50;;;25.00;;
59907;SDS011;61804;54.926;73.496;2023-02-12T11:48:18;36.28;;;20.27;;
59907;SDS011;61804;54.926;73.496;2023-02-12T11:50:46;33.05;;;22.95;;
59907;SDS011;61804;54.926;73.496;2023-02-12T11:53:20;30.10;;;20.17;;
59907;SDS011;61804;54.926;73.496;2023-02-12T11:56:02;69.95;;;35.95;;
59907;SDS011;61804;54.926;73.496;2023-02-12T11:58:31;75.47;;;44.20;;
59907;SDS011;61804;54.926;73.496;2023-02-12T12:03:34;101.82;;;55.80;;
59907;SDS011;61804;54.926;73.496;2023-02-12T12:06:17;46.40;;;27.48;;
59907;SDS011;61804;54.926;73.496;2023-02-12T12:13:47;44.63;;;25.90;;
59907;SDS011;61804;54.926;73.496;2023-02-12T12:16:23;65.18;;;43.85;;
59907;SDS011;61804;54.926;73.496;2023-02-12T12:19:34;56.13;;;39.92;;
59907;SDS011;61804;54.926;73.496;2023-02-12T12:22:45;68.20;;;44.03;;
59907;SDS011;61804;54.926;73.496;2023-02-12T12:25:17;63.83;;;42.40;;
59907;SDS011;61804;54.926;73.496;2023-02-12T12:27:58;52.05;;;28.27;;
59907;SDS011;61804;54.926;73.496;2023-02-12T12:47:11;44.45;;;26.80;;
59907;SDS011;61804;54.926;73.496;2023-02-12T12:50:05;61.65;;;35.40;;
59907;SDS011;61804;54.926;73.496;2023-02-12T13:00:44;97.20;;;59.38;;
59907;SDS011;61804;54.926;73.496;2023-02-12T13:08:38;61.85;;;38.42;;
59907;SDS011;61804;54.926;73.496;2023-02-12T13:14:07;87.28;;;47.85;;
59907;SDS011;61804;54.926;73.496;2023-02-12T13:19:21;76.50;;;42.55;;
59907;SDS011;61804;54.926;73.496;2023-02-12T13:27:13;105.97;;;61.42;;
59907;SDS011;61804;54.926;73.496;2023-02-12T13:29:47;116.43;;;67.07;;
59907;SDS011;61804;54.926;73.496;2023-02-12T13:32:23;123.45;;;69.50;;
59907;SDS011;61804;54.926;73.496;2023-02-12T13:34:52;117.85;;;55.72;;
59907;SDS011;61804;54.926;73.496;2023-02-12T13:37:24;48.13;;;28.40;;
59907;SDS011;61804;54.926;73.496;2023-02-12T13:39:57;50.83;;;32.15;;
59907;SDS011;61804;54.926;73.496;2023-02-12T13:47:46;296.20;;;154.15;;
59907;SDS011;61804;54.926;73.496;2023-02-12T14:01:10;212.82;;;96.53;;
59907;SDS011;61804;54.926;73.496;2023-02-12T14:03:41;214.07;;;112.60;;
59907;SDS011;61804;54.926;73.496;2023-02-12T14:06:14;250.95;;;138.10;;
59907;SDS011;61804;54.926;73.496;2023-02-12T14:09:06;290.65;;;154.93;;
59907;SDS011;61804;54.926;73.496;2023-02-12T14:11:39;246.18;;;140.30;;
59907;SDS011;61804;54.926;73.496;2023-02-12T14:14:27;301.67;;;166.25;;
59907;SDS011;61804;54.926;73.496;2023-02-12T14:16:55;176.65;;;98.70;;
59907;SDS011;61804;54.926;73.496;2023-02-12T14:24:55;407.42;;;230.15;;
59907;SDS011;61804;54.926;73.496;2023-02-12T14:27:28;306.83;;;185.95;;
59907;SDS011;61804;54.926;73.496;2023-02-12T14:40:47;267.83;;;155.43;;
59907;SDS011;61804;54.926;73.496;2023-02-12T14:43:23;245.02;;;148.55;;
59907;SDS011;61804;54.926;73.496;2023-02-12T14:45:52;369.00;;;224.40;;
59907;SDS011;61804;54.926;73.496;2023-02-12T14:51:27;189.80;;;118.90;;
59907;SDS011;61804;54.926;73.496;2023-02-12T14:53:57;143.68;;;82.45;;
59907;SDS011;61804;54.926;73.496;2023-02-12T14:56:25;148.02;;;82.22;;
59907;SDS011;61804;54.926;73.496;2023-02-12T14:58:53;138.68;;;90.57;;
59907;SDS011;61804;54.926;73.496;2023-02-12T15:01:31;253.85;;;137.38;;
59907;SDS011;61804;54.926;73.496;2023-02-12T15:04:02;313.90;;;172.63;;
59907;SDS011;61804;54.926;73.496;2023-02-12T15:06:36;415.98;;;253.73;;
59907;SDS011;61804;54.926;73.496;2023-02-12T15:09:15;459.85;;;289.65;;
59907;SDS011;61804;54.926;73.496;2023-02-12T15:12:04;386.58;;;226.82;;
59907;SDS011;61804;54.926;73.496;2023-02-12T15:14:35;373.45;;;206.02;;
59907;SDS011;61804;54.926;73.496;2023-02-12T15:17:23;329.58;;;198.20;;
59907;SDS011;61804;54.926;73.496;2023-02-12T15:19:58;416.52;;;235.32;;
59907;SDS011;61804;54.926;73.496;2023-02-12T15:22:32;355.90;;;203.65;;
59907;SDS011;61804;54.926;73.496;2023-02-12T15:27:44;334.75;;;191.40;;
59907;SDS011;61804;54.926;73.496;2023-02-12T15:30:15;289.13;;;171.35;;
59907;SDS011;61804;54.926;73.496;2023-02-12T15:32:44;254.20;;;134.00;;
59907;SDS011;61804;54.926;73.496;2023-02-12T15:35:38;236.18;;;142.27;;
59907;SDS011;61804;54.926;73.496;2023-02-12T15:38:17;197.18;;;116.53;;
59907;SDS011;61804;54.926;73.496;2023-02-12T15:40:54;48.97;;;31.13;;
59907;SDS011;61804;54.926;73.496;2023-02-12T15:43:24;193.38;;;100.32;;
59907;SDS011;61804;54.926;73.496;2023-02-12T15:45:52;189.98;;;115.22;;
59907;SDS011;61804;54.926;73.496;2023-02-12T15:48:20;198.68;;;124.05;;
59907;SDS011;61804;54.926;73.496;2023-02-12T15:53:19;87.72;;;52.95;;
59907;SDS011;61804;54.926;73.496;2023-02-12T15:55:49;50.10;;;26.42;;
59907;SDS011;61804;54.926;73.496;2023-02-12T15:58:19;63.55;;;40.88;;
59907;SDS011;61804;54.926;73.496;2023-02-12T16:00:47;51.47;;;29.50;;
59907;SDS011;61804;54.926;73.496;2023-02-12T16:03:23;90.15;;;50.22;;
59907;SDS011;61804;54.926;73.496;2023-02-12T16:08:43;174.63;;;93.78;;
59907;SDS011;61804;54.926;73.496;2023-02-12T16:11:10;335.30;;;171.75;;
59907;SDS011;61804;54.926;73.496;2023-02-12T16:13:53;269.25;;;156.57;;
59907;SDS011;61804;54.926;73.496;2023-02-12T16:16:26;283.02;;;153.77;;
59907;SDS011;61804;54.926;73.496;2023-02-12T16:19:13;129.68;;;72.90;;
59907;SDS011;61804;54.926;73.496;2023-02-12T16:22:09;104.43;;;66.75;;
59907;SDS011;61804;54.926;73.496;2023-02-12T16:24:46;68.07;;;46.92;;
59907;SDS011;61804;54.926;73.496;2023-02-12T16:27:22;125.43;;;79.32;;
59907;SDS011;61804;54.926;73.496;2023-02-12T16:32:29;106.72;;;63.78;;
59907;SDS011;61804;54.926;73.496;2023-02-12T16:37:52;115.32;;;62.90;;
59907;SDS011;61804;54.926;73.496;2023-02-12T16:40:24;101.73;;;59.93;;
59907;SDS011;61804;54.926;73.496;2023-02-12T16:45:41;299.63;;;172.25;;
59907;SDS011;61804;54.926;73.496;2023-02-12T16:48:20;157.05;;;88.95;;
59907;SDS011;61804;54.926;73.496;2023-02-12T16:50:52;177.23;;;102.65;;
59907;SDS011;61804;54.926;73.496;2023-02-12T16:56:02;154.85;;;87.70;;
59907;SDS011;61804;54.926;73.496;2023-02-12T16:58:30;257.77;;;149.48;;
59907;SDS011;61804;54.926;73.496;2023-02-12T17:01:00;181.27;;;102.78;;
59907;SDS011;61804;54.926;73.496;2023-02-12T17:03:33;190.90;;;94.72;;
59907;SDS011;61804;54.926;73.496;2023-02-12T17:06:02;194.82;;;95.70;;
59907;SDS011;61804;54.926;73.496;2023-02-12T17:08:29;342.95;;;183.10;;
59907;SDS011;61804;54.926;73.496;2023-02-12T17:11:01;196.95;;;102.05;;
59907;SDS011;61804;54.926;73.496;2023-02-12T17:13:31;170.82;;;91.30;;
59907;SDS011;61804;54.926;73.496;2023-02-12T17:16:00;263.20;;;128.63;;
59907;SDS011;61804;54.926;73.496;2023-02-12T17:18:40;175.35;;;101.43;;
59907;SDS011;61804;54.926;73.496;2023-02-12T17:21:13;191.98;;;103.35;;